AU-0088 weather

Couran Cove Resort Helipad
Couran Cove Resort, Queensland, Australia

Public forecast

Using degrees Celsius for public forecast. Weather courtesy of forecast.io.

Closest aviation weather report (METAR) to Couran Cove Resort Helipad

Closest report is Gold Coast Airport, 21.1 nm (39.0 km) SSE. Retrieved 2020/03/29 23:30 UTC (16 minutes ago):

YBCG 292330Z AUTO 03007KT 9999 // NCD 25/18 Q1017 RF000/0000

Closest aviation forecast (TAF) to Couran Cove Resort Helipad

Closest forecast is Gold Coast Airport, 21.1 nm (39.0 km) SSE. Retrieved 2020/03/29 18:00 UTC (6 hours ago):

TAF YBCG 291717Z 2918/3018 20005KT 9999 FEW020 FM300100 03010KT 9999 FEW035 FM301200 32008KT 9999 FEW025